Puget Island, Washington
Current Conditions -  °F | °C
As of 8:55 AM on Thursday 23 Oct 2014 (Local Time) from KKLS Reporting Station
Overcast Overcast  
Wind Chill: 54°   Ceiling: 7000
Heat Index: 54°   Visibility: 10mi
Dew Point: 48°   Wind: 3mph
Humidity: 82%   Direction: 130°SE
Pressure: 29.83"   Gusts: NA
Location:  46.2689°N, 123.296°W
Report Text: KKLS 231555Z AUTO 13003KT 10SM SCT045 OVC070 12/09 A2983 RMK AO1 P0001
Loading
Personal Weather Stations






























Interactive Weather Map
Tropical Storm Tracking
New forecast layout! Learn more

10-Day Weather Forecast

Advertisements
Track Severe Weather on mobile